createdAt,value
2018-04-14T00:01:04.873Z,369.53
2018-04-14T00:03:32.337Z,216.20
2018-04-14T00:06:00.577Z,297.90
2018-04-14T00:08:28.041Z,397.50
2018-04-14T00:10:55.525Z,414.03
2018-04-14T00:13:22.988Z,244.13
2018-04-14T00:15:50.459Z,269.90
2018-04-14T00:18:18.685Z,524.43
2018-04-14T00:20:46.163Z,253.10
2018-04-14T00:23:13.625Z,282.17
2018-04-14T00:25:41.873Z,1857.73
2018-04-14T00:28:09.329Z,969.07
2018-04-14T00:30:37.722Z,1324.20
2018-04-14T00:33:05.193Z,623.80
2018-04-14T00:35:34.414Z,441.23
2018-04-14T00:38:02.654Z,620.10
2018-04-14T00:40:30.137Z,427.40
2018-04-14T00:42:58.264Z,280.40
2018-04-14T00:45:25.728Z,542.03
2018-04-14T00:47:53.192Z,321.53
2018-04-14T00:50:20.675Z,341.00
2018-04-14T00:52:51.385Z,380.20
2018-04-14T00:55:18.857Z,336.00
2018-04-14T00:57:46.329Z,367.33
2018-04-14T01:00:20.065Z,450.97
2018-04-14T01:02:48.485Z,306.07
2018-04-14T01:05:16.724Z,344.93
2018-04-14T01:07:44.194Z,406.07
2018-04-14T01:10:11.679Z,1200.00
2018-04-14T01:12:39.147Z,1999.90
2018-04-14T01:15:07.404Z,1999.90
2018-04-14T01:17:40.355Z,1999.90
2018-04-14T01:20:08.610Z,1999.90
2018-04-14T01:22:36.072Z,1139.73
2018-04-14T01:25:03.546Z,1999.90
2018-04-14T01:27:31.029Z,1144.73
2018-04-14T01:29:58.500Z,1288.67
2018-04-14T01:32:26.037Z,1588.97
2018-04-14T01:34:53.457Z,1232.40
2018-04-14T01:37:20.950Z,1341.27
2018-04-14T01:39:48.416Z,809.40
2018-04-14T01:42:18.566Z,362.67
2018-04-14T01:44:46.793Z,502.33
2018-04-14T01:47:14.276Z,1387.33
2018-04-14T01:49:41.753Z,1999.90
2018-04-14T01:52:30.520Z,1999.90
2018-04-14T01:54:58.001Z,419.70
2018-04-14T01:57:25.472Z,1172.30
2018-04-14T01:59:53.706Z,1999.90
2018-04-14T02:02:27.686Z,609.10
2018-04-14T02:04:55.145Z,451.00
2018-04-14T02:07:22.616Z,706.93
2018-04-14T02:09:50.087Z,614.97
2018-04-14T02:12:17.557Z,558.90
2018-04-14T02:14:45.017Z,602.23
2018-04-14T02:17:13.249Z,558.77
2018-04-14T02:19:40.713Z,634.10
2018-04-14T02:22:08.198Z,454.03
2018-04-14T02:24:35.658Z,460.20
2018-04-14T02:27:03.896Z,377.40
2018-04-14T02:29:51.883Z,396.40
2018-04-14T02:32:19.362Z,366.30
2018-04-14T02:34:46.832Z,381.17
2018-04-14T02:37:14.310Z,451.53
2018-04-14T02:39:41.775Z,344.90
2018-04-14T02:42:09.249Z,681.53
2018-04-14T02:44:48.869Z,937.53
2018-04-14T02:47:16.342Z,999.57
2018-04-14T02:49:43.819Z,1502.30
2018-04-14T02:52:12.340Z,1999.90
2018-04-14T02:54:41.825Z,1999.90
2018-04-14T02:57:09.308Z,1999.90
2018-04-14T02:59:36.778Z,1999.90
2018-04-14T03:02:05.022Z,1464.57
2018-04-14T03:04:32.490Z,1999.90
2018-04-14T03:07:00.742Z,1999.90
2018-04-14T03:09:28.217Z,1938.90
2018-04-14T03:11:55.684Z,1832.10
2018-04-14T03:14:23.169Z,1804.70
2018-04-14T03:16:50.648Z,1999.90
2018-04-14T03:19:18.116Z,1652.90
2018-04-14T03:21:45.610Z,1842.17
2018-04-14T03:24:13.086Z,1465.00
2018-04-14T03:26:40.591Z,614.47
2018-04-14T03:29:08.065Z,1244.27
2018-04-14T03:31:35.541Z,1360.13
2018-04-14T03:34:05.010Z,1403.03
2018-04-14T03:36:33.262Z,1157.33
2018-04-14T03:44:46.187Z,1591.37
2018-04-14T03:47:13.725Z,1631.30
2018-04-14T03:50:01.146Z,1750.90
2018-04-14T03:52:28.627Z,1999.90
2018-04-14T03:54:56.121Z,1365.90
2018-04-14T03:57:23.604Z,1999.90
2018-04-14T03:59:51.077Z,1470.07
2018-04-14T04:02:29.235Z,1860.27
2018-04-14T04:04:56.699Z,1999.90
2018-04-14T04:07:24.172Z,1999.90
2018-04-14T04:09:51.651Z,1999.90
2018-04-14T04:12:19.486Z,1999.90
2018-04-14T04:14:47.721Z,1999.90
2018-04-14T04:17:15.202Z,1999.90
2018-04-14T04:19:54.464Z,1999.90
2018-04-14T04:22:33.793Z,1999.90
2018-04-14T04:25:27.242Z,1999.90
2018-04-14T04:28:00.895Z,1999.90
2018-04-14T04:30:28.365Z,1999.90
2018-04-14T04:32:55.854Z,1999.90
2018-04-14T04:35:24.245Z,1999.90
2018-04-14T04:37:51.716Z,1999.90
2018-04-14T04:40:19.191Z,1999.90
2018-04-14T04:42:46.669Z,1999.90
2018-04-14T04:45:14.158Z,1557.17
2018-04-14T04:47:41.625Z,1999.90
2018-04-14T04:50:09.090Z,1999.90
2018-04-14T04:52:36.568Z,1999.90
2018-04-14T04:55:07.010Z,1999.90
2018-04-14T04:57:35.249Z,1899.40
2018-04-14T05:00:02.727Z,1999.90
2018-04-14T05:02:30.218Z,1999.90
2018-04-14T05:04:57.686Z,1999.90
2018-04-14T05:07:25.444Z,1966.13
2018-04-14T05:09:52.939Z,1866.70
2018-04-14T05:12:20.418Z,1833.93
2018-04-14T05:14:47.881Z,1999.90
2018-04-14T05:17:16.125Z,1999.90
2018-04-14T05:19:44.367Z,1999.90
2018-04-14T05:22:11.842Z,1999.90
2018-04-14T05:24:39.320Z,1999.90
2018-04-14T05:27:10.734Z,1999.90
2018-04-14T05:29:38.979Z,1999.90
2018-04-14T05:32:06.458Z,1999.90
2018-04-14T05:34:33.934Z,1999.90
2018-04-14T05:37:01.418Z,1999.90
2018-04-14T05:39:28.881Z,1646.67
2018-04-14T05:41:56.373Z,1916.57
2018-04-14T05:44:23.849Z,1982.00
2018-04-14T05:46:51.329Z,1999.90
2018-04-14T05:49:19.718Z,1999.90
2018-04-14T05:51:48.122Z,1999.90
2018-04-14T05:54:15.598Z,1999.90
2018-04-14T05:56:43.839Z,1999.90
2018-04-14T05:59:11.318Z,1977.43
2018-04-14T06:01:38.782Z,1226.33
2018-04-14T06:04:06.267Z,1529.33
2018-04-14T06:06:33.730Z,1224.50
2018-04-14T06:09:01.225Z,659.20
2018-04-14T06:11:29.438Z,411.30
2018-04-14T06:13:58.845Z,340.03
2018-04-14T06:16:28.249Z,380.57
2018-04-14T06:18:57.082Z,404.73
2018-04-14T06:21:24.571Z,278.53
2018-04-14T06:23:52.058Z,354.17
2018-04-14T06:26:19.526Z,393.50
2018-04-14T06:28:47.003Z,562.83
2018-04-14T06:31:15.233Z,425.83
2018-04-14T06:33:42.705Z,318.47
2018-04-14T06:36:10.167Z,856.40
2018-04-14T06:38:39.420Z,1362.80
2018-04-14T06:41:06.885Z,789.50
2018-04-14T06:43:42.321Z,1191.23
2018-04-14T06:46:27.714Z,707.80
2018-04-14T06:49:03.607Z,795.40
2018-04-14T06:51:54.725Z,188.90
2018-04-14T06:54:22.207Z,248.57
2018-04-14T06:56:49.673Z,195.53
2018-04-14T06:59:17.145Z,175.03
2018-04-14T07:01:44.618Z,194.43
2018-04-14T07:04:12.095Z,283.87
2018-04-14T07:06:39.549Z,283.33
2018-04-14T07:09:07.785Z,294.07
2018-04-14T07:11:35.247Z,319.03
2018-04-14T07:14:02.718Z,438.13
2018-04-14T07:16:40.742Z,325.50
2018-04-14T07:19:08.213Z,218.93
2018-04-14T07:21:36.642Z,240.57
2018-04-14T07:24:04.890Z,200.07
2018-04-14T07:26:32.355Z,208.63
2018-04-14T07:28:59.826Z,234.83
2018-04-14T07:31:27.299Z,145.43
2018-04-14T07:33:54.775Z,131.50
2018-04-14T07:36:22.998Z,170.33
2018-04-14T07:38:50.466Z,149.33
2018-04-14T07:41:17.933Z,168.77
2018-04-14T07:43:46.165Z,137.87
2018-04-14T07:46:13.636Z,114.33
2018-04-14T07:48:45.410Z,118.40
2018-04-14T07:51:12.879Z,119.93
2018-04-14T07:53:40.351Z,104.07
2018-04-14T07:56:08.582Z,101.27
2018-04-14T07:58:36.051Z,97.93
2018-04-14T08:01:05.281Z,108.40
2018-04-14T08:03:32.768Z,110.03
2018-04-14T08:06:00.234Z,100.13
2018-04-14T08:08:28.483Z,101.03
2018-04-14T08:10:56.592Z,94.17
2018-04-14T08:13:27.502Z,98.10
2018-04-14T08:15:54.957Z,85.63
2018-04-14T08:18:23.423Z,101.90
2018-04-14T08:20:51.605Z,94.27
2018-04-14T08:23:19.088Z,101.17
2018-04-14T08:25:57.878Z,80.77
2018-04-14T08:28:29.192Z,89.83
2018-04-14T08:30:56.657Z,78.47
2018-04-14T08:33:24.892Z,74.63
2018-04-14T08:35:52.349Z,75.37
2018-04-14T08:38:20.580Z,71.10
2018-04-14T08:40:48.052Z,56.77
2018-04-14T08:43:15.521Z,56.90
2018-04-14T08:45:42.986Z,51.80
2018-04-14T08:48:11.231Z,52.67
2018-04-14T08:50:39.458Z,52.53
2018-04-14T08:53:10.566Z,46.60
2018-04-14T08:55:38.790Z,56.50
2018-04-14T08:58:06.253Z,59.97
2018-04-14T09:00:34.478Z,62.80
2018-04-14T09:03:01.946Z,63.27
2018-04-14T09:05:29.418Z,61.57
2018-04-14T09:07:57.655Z,58.80
2018-04-14T09:10:25.126Z,71.10
2018-04-14T09:12:52.589Z,63.40
2018-04-14T09:15:20.820Z,64.67
2018-04-14T09:17:48.286Z,67.73
2018-04-14T09:20:15.748Z,72.63
2018-04-14T09:22:43.973Z,69.03
2018-04-14T09:25:11.442Z,67.80
2018-04-14T09:27:38.893Z,55.13
2018-04-14T09:30:06.366Z,59.20
2018-04-14T09:32:33.842Z,59.40
2018-04-14T09:35:01.313Z,53.90
2018-04-14T09:37:28.782Z,51.47
2018-04-14T09:39:56.261Z,46.23
2018-04-14T09:42:23.730Z,46.73
2018-04-14T09:44:51.203Z,48.17
2018-04-14T09:47:18.671Z,46.20
2018-04-14T09:49:46.162Z,50.60
2018-04-14T09:52:13.635Z,49.27
2018-04-14T09:54:41.869Z,48.13
2018-04-14T09:57:09.342Z,49.60
2018-04-14T09:59:36.814Z,51.00
2018-04-14T10:02:04.288Z,49.57
2018-04-14T10:04:32.520Z,46.90
2018-04-14T10:09:35.946Z,46.93
2018-04-14T10:12:09.573Z,46.93
2018-04-14T10:14:37.478Z,47.07
2018-04-14T10:17:04.953Z,44.47
2018-04-14T10:19:32.999Z,42.40
2018-04-14T10:22:00.462Z,42.43
2018-04-14T10:24:42.531Z,36.40
2018-04-14T10:27:21.548Z,41.40
2018-04-14T10:35:55.451Z,37.60
2018-04-14T10:38:22.901Z,37.17
2018-04-14T10:40:50.377Z,38.07
2018-04-14T10:43:18.589Z,40.47
2018-04-14T10:45:46.061Z,36.80
2018-04-14T10:48:13.534Z,38.97
2018-04-14T10:50:41.005Z,38.07
2018-04-14T10:53:09.230Z,36.73
2018-04-14T10:55:36.706Z,34.70
2018-04-14T10:58:04.175Z,32.30
2018-04-14T11:00:31.643Z,33.83
2018-04-14T11:02:59.097Z,32.83
2018-04-14T11:05:26.570Z,33.30
2018-04-14T11:07:54.025Z,32.50
2018-04-14T11:10:21.501Z,32.33
2018-04-14T11:12:48.990Z,35.00
2018-04-14T11:15:16.510Z,33.80
2018-04-14T11:17:44.714Z,34.10
2018-04-14T11:20:12.201Z,33.70
2018-04-14T11:22:39.672Z,32.60
2018-04-14T11:25:07.149Z,31.93
2018-04-14T11:27:34.618Z,29.40
2018-04-14T11:30:02.105Z,29.30
2018-04-14T11:32:29.565Z,29.70
2018-04-14T11:34:57.038Z,31.73
2018-04-14T11:37:24.493Z,32.07
2018-04-14T11:39:51.968Z,29.23
2018-04-14T11:42:19.430Z,28.73
2018-04-14T11:44:46.905Z,29.93
2018-04-14T11:47:14.373Z,30.50
2018-04-14T11:49:41.848Z,28.33
2018-04-14T11:52:09.310Z,28.57
2018-04-14T11:54:36.796Z,30.63
2018-04-14T11:57:04.257Z,30.80
2018-04-14T11:59:31.721Z,29.13
2018-04-14T12:01:59.189Z,30.17
2018-04-14T12:04:26.656Z,30.40
2018-04-14T12:06:54.128Z,28.33
2018-04-14T12:09:21.605Z,30.43
2018-04-14T12:11:49.064Z,28.93
2018-04-14T12:14:16.524Z,27.90
2018-04-14T12:16:44.010Z,29.80
2018-04-14T12:19:12.468Z,30.73
2018-04-14T12:21:39.933Z,30.10
2018-04-14T12:24:07.401Z,31.73
2018-04-14T12:26:34.867Z,28.70
2018-04-14T12:29:03.230Z,29.20
2018-04-14T12:31:30.702Z,29.80
2018-04-14T12:33:58.177Z,31.53
2018-04-14T12:36:26.436Z,30.57
2018-04-14T12:38:53.885Z,30.83
2018-04-14T12:41:21.357Z,29.97
2018-04-14T12:43:48.830Z,30.20
2018-04-14T12:46:16.310Z,28.03
2018-04-14T12:48:43.769Z,30.83
2018-04-14T12:51:11.237Z,29.60
2018-04-14T12:53:38.701Z,32.00
2018-04-14T12:56:06.171Z,30.07
2018-04-14T12:58:33.629Z,33.43
2018-04-14T13:01:01.123Z,34.40
2018-04-14T13:03:28.573Z,32.10
2018-04-14T13:05:56.053Z,34.17
2018-04-14T13:08:23.518Z,33.73
2018-04-14T13:10:50.995Z,34.03
2018-04-14T13:13:18.459Z,34.30
2018-04-14T13:15:46.698Z,33.37
2018-04-14T13:18:14.929Z,33.17
2018-04-14T13:20:42.397Z,31.90
2018-04-14T13:23:09.865Z,33.37
2018-04-14T13:25:37.331Z,30.80
2018-04-14T13:28:04.801Z,31.77
2018-04-14T13:30:32.269Z,31.93
2018-04-14T13:32:59.754Z,32.20
2018-04-14T13:35:27.229Z,29.30
2018-04-14T13:37:54.714Z,30.10
2018-04-14T13:40:22.177Z,31.83
2018-04-14T13:42:49.654Z,31.50
2018-04-14T13:45:17.113Z,34.07
2018-04-14T13:47:44.581Z,32.20
2018-04-14T13:50:12.057Z,34.07
2018-04-14T13:52:39.525Z,35.60
2018-04-14T13:55:07.006Z,32.60
2018-04-14T13:57:34.473Z,31.20
2018-04-14T14:00:01.945Z,34.43
2018-04-14T14:02:29.413Z,32.33
2018-04-14T14:04:56.890Z,32.10
2018-04-14T14:07:24.364Z,35.23
2018-04-14T14:09:51.822Z,33.67
2018-04-14T14:12:19.285Z,34.70
2018-04-14T14:14:46.757Z,34.20
2018-04-14T14:17:15.128Z,34.70
2018-04-14T14:19:42.598Z,34.47
2018-04-14T14:22:10.070Z,36.93
2018-04-14T14:24:37.525Z,33.10
2018-04-14T14:27:09.929Z,33.77
2018-04-14T14:29:37.393Z,35.53
2018-04-14T14:32:04.870Z,35.27
2018-04-14T14:34:32.335Z,36.60
2018-04-14T14:36:59.805Z,34.67
2018-04-14T14:39:27.278Z,35.27
2018-04-14T14:41:55.649Z,36.87
2018-04-14T14:44:31.989Z,30.10
2018-04-14T14:46:59.454Z,31.53
2018-04-14T14:49:26.925Z,27.03
2018-04-14T14:51:56.378Z,26.90
2018-04-14T14:54:23.838Z,28.00
2018-04-14T14:56:51.319Z,27.87
2018-04-14T14:59:18.772Z,28.53
2018-04-14T15:01:47.013Z,31.40
2018-04-14T15:04:14.468Z,30.77
2018-04-14T15:06:41.945Z,28.63
2018-04-14T15:09:09.410Z,30.07
2018-04-14T15:11:36.891Z,28.73
2018-04-14T15:14:04.344Z,27.07
2018-04-14T15:16:31.824Z,28.40
2018-04-14T15:18:59.297Z,30.30
2018-04-14T15:21:26.764Z,27.27
2018-04-14T15:23:54.226Z,27.77
2018-04-14T15:26:21.688Z,28.73
2018-04-14T15:28:49.160Z,28.00
2018-04-14T15:31:16.638Z,29.50
2018-04-14T15:33:44.106Z,29.43
2018-04-14T15:36:11.583Z,29.53
2018-04-14T15:38:39.046Z,26.60
2018-04-14T15:41:06.533Z,27.27
2018-04-14T15:43:33.994Z,29.03
2018-04-14T15:46:01.469Z,29.20
2018-04-14T15:48:28.929Z,29.83
2018-04-14T15:50:56.401Z,30.60
2018-04-14T15:53:23.861Z,30.00
2018-04-14T15:55:51.333Z,31.30
2018-04-14T15:58:18.799Z,27.50
2018-04-14T16:00:46.275Z,28.63
2018-04-14T16:03:13.755Z,26.33
2018-04-14T16:05:41.215Z,25.67
2018-04-14T16:08:08.677Z,28.40
2018-04-14T16:10:36.904Z,27.00
2018-04-14T16:13:04.372Z,27.60
2018-04-14T16:15:32.505Z,27.33
2018-04-14T16:17:59.978Z,27.57
2018-04-14T16:20:27.447Z,26.57
2018-04-14T16:22:54.918Z,25.33
2018-04-14T16:25:22.377Z,27.63
2018-04-14T16:27:49.867Z,29.30
2018-04-14T16:30:17.649Z,27.40
2018-04-14T16:32:45.126Z,26.57
2018-04-14T16:35:12.589Z,27.93
2018-04-14T16:37:40.070Z,25.73
2018-04-14T16:40:07.538Z,26.70
2018-04-14T16:42:35.018Z,26.33
2018-04-14T16:45:02.494Z,27.43
2018-04-14T16:47:29.958Z,27.57
2018-04-14T16:49:57.432Z,26.90
2018-04-14T16:52:24.913Z,26.43
2018-04-14T16:54:52.368Z,24.57
2018-04-14T16:57:19.850Z,27.90
2018-04-14T16:59:47.309Z,29.83
2018-04-14T17:02:14.781Z,27.77
2018-04-14T17:04:42.682Z,29.07
2018-04-14T17:07:10.158Z,28.70
2018-04-14T17:09:37.617Z,32.23
2018-04-14T17:12:05.089Z,33.67
2018-04-14T17:14:32.559Z,45.90
2018-04-14T17:17:00.032Z,36.37
2018-04-14T17:19:27.490Z,34.57
2018-04-14T17:21:54.958Z,33.90
2018-04-14T17:24:22.425Z,34.23
2018-04-14T17:26:49.893Z,32.90
2018-04-14T17:29:17.358Z,29.93
2018-04-14T17:31:44.825Z,27.70
2018-04-14T17:34:12.284Z,25.40
2018-04-14T17:36:39.754Z,26.93
2018-04-14T17:39:07.212Z,26.87
2018-04-14T17:41:34.697Z,28.23
2018-04-14T17:44:02.178Z,25.40
2018-04-14T17:46:29.663Z,24.90
2018-04-14T17:48:57.125Z,26.13
2018-04-14T17:51:24.601Z,26.40
2018-04-14T17:53:52.066Z,26.30
2018-04-14T17:56:19.540Z,29.30
2018-04-14T17:58:46.998Z,28.97
2018-04-14T18:01:14.478Z,28.70
2018-04-14T18:03:41.932Z,30.00
2018-04-14T18:06:09.395Z,28.60
2018-04-14T18:08:36.870Z,27.53
2018-04-14T18:11:04.338Z,28.23
2018-04-14T18:13:31.808Z,30.53
2018-04-14T18:15:59.273Z,34.00
2018-04-14T18:18:26.747Z,30.30
2018-04-14T18:20:54.208Z,32.33
2018-04-14T18:23:21.673Z,32.47
2018-04-14T18:25:49.147Z,32.30
2018-04-14T18:28:16.620Z,28.23
2018-04-14T18:30:44.077Z,30.03
2018-04-14T18:33:11.545Z,23.90
2018-04-14T18:35:39.010Z,22.90
2018-04-14T18:38:06.477Z,25.80
2018-04-14T18:40:33.937Z,27.43
2018-04-14T18:43:02.305Z,38.40
2018-04-14T18:45:29.757Z,62.07
2018-04-14T18:47:57.223Z,80.57
2018-04-14T18:50:24.677Z,65.60
2018-04-14T18:52:52.157Z,48.20
2018-04-14T18:55:19.622Z,65.60
2018-04-14T19:06:25.801Z,58.33
2018-04-14T19:08:53.261Z,55.80
2018-04-14T19:11:20.720Z,49.70
2018-04-14T19:13:48.193Z,45.80
2018-04-14T19:16:15.653Z,46.23
2018-04-14T19:18:43.125Z,50.80
2018-04-14T19:21:10.594Z,50.23
2018-04-14T19:26:30.766Z,54.23
2018-04-14T19:28:58.229Z,57.17
2018-04-14T19:31:25.693Z,51.93
2018-04-14T19:33:53.157Z,55.37
2018-04-14T19:36:20.626Z,57.67
2018-04-14T19:38:48.093Z,63.60
2018-04-14T19:41:15.555Z,65.03
2018-04-14T19:43:43.029Z,64.40
2018-04-14T19:46:10.488Z,62.73
2018-04-14T19:48:37.987Z,58.00
2018-04-14T19:51:05.425Z,67.70
2018-04-14T19:53:32.892Z,55.40
2018-04-14T19:56:00.349Z,55.30
2018-04-14T19:58:27.822Z,56.27
2018-04-14T20:00:55.275Z,54.47
2018-04-14T20:03:22.746Z,57.30
2018-04-14T20:05:50.971Z,58.93
2018-04-14T20:08:18.441Z,62.20
2018-04-14T20:10:45.925Z,64.33
2018-04-14T20:13:13.422Z,69.43
2018-04-14T20:15:40.883Z,64.70
2018-04-14T20:18:08.345Z,54.13
2018-04-14T20:20:35.801Z,52.97
2018-04-14T20:23:03.277Z,50.47
2018-04-14T20:25:31.453Z,57.40
2018-04-14T20:27:58.917Z,55.37
2018-04-14T20:30:26.386Z,52.63
2018-04-14T20:32:53.853Z,49.60
2018-04-14T20:35:21.314Z,53.53
2018-04-14T20:37:48.814Z,50.27
2018-04-14T20:40:16.270Z,50.20
2018-04-14T20:42:43.738Z,50.63
2018-04-14T20:45:11.193Z,51.17
2018-04-14T20:47:38.661Z,52.30
2018-04-14T20:50:06.126Z,48.60
2018-04-14T20:52:33.590Z,51.60
2018-04-14T20:55:01.069Z,50.00
2018-04-14T20:57:28.541Z,48.10
2018-04-14T20:59:56.000Z,52.13
2018-04-14T21:02:23.474Z,50.13
2018-04-14T21:04:50.933Z,50.10
2018-04-14T21:07:18.408Z,46.23
2018-04-14T21:09:45.859Z,50.63
2018-04-14T21:12:14.113Z,50.40
2018-04-14T21:14:41.574Z,49.93
2018-04-14T21:17:09.041Z,52.83
2018-04-14T21:19:36.501Z,59.00
2018-04-14T21:22:03.969Z,56.07
2018-04-14T21:24:31.442Z,52.07
2018-04-14T21:26:58.901Z,52.77
2018-04-14T21:29:26.365Z,58.10
2018-04-14T21:31:53.825Z,44.17
2018-04-14T21:34:21.288Z,59.33
2018-04-14T21:36:48.769Z,52.70
2018-04-14T21:39:16.232Z,62.70
2018-04-14T21:41:43.702Z,72.73
2018-04-14T21:44:11.176Z,49.77
2018-04-14T21:46:38.657Z,47.47
2018-04-14T21:49:06.127Z,55.67
2018-04-14T21:51:33.597Z,52.53
2018-04-14T21:54:01.074Z,53.27
2018-04-14T21:56:28.534Z,41.77
2018-04-14T21:58:56.011Z,43.97
2018-04-14T22:01:23.474Z,40.03
2018-04-14T22:03:50.936Z,42.90
2018-04-14T22:06:18.401Z,36.70
2018-04-14T22:08:45.870Z,44.33
2018-04-14T22:11:13.321Z,45.87
2018-04-14T22:13:44.761Z,55.03
2018-04-14T22:16:12.226Z,41.00
2018-04-14T22:18:39.698Z,37.80
2018-04-14T22:21:07.158Z,35.00
2018-04-14T22:23:34.632Z,41.37
2018-04-14T22:26:02.096Z,27.57
2018-04-14T22:28:29.552Z,31.90
2018-04-14T22:30:57.017Z,45.53
2018-04-14T22:33:24.484Z,64.40
2018-04-14T22:35:51.950Z,55.87
2018-04-14T22:38:19.426Z,60.57
2018-04-14T22:40:46.877Z,42.17
2018-04-14T22:43:14.350Z,28.40
2018-04-14T22:45:41.808Z,29.80
2018-04-14T22:48:09.282Z,26.67
2018-04-14T22:50:36.739Z,36.77
2018-04-14T22:53:04.201Z,50.93
2018-04-14T22:55:32.257Z,37.03
2018-04-14T22:57:59.729Z,34.30
2018-04-14T23:00:27.188Z,25.27
2018-04-14T23:02:54.653Z,36.20
2018-04-14T23:05:22.106Z,35.90
2018-04-14T23:07:51.487Z,21.70
2018-04-14T23:10:18.945Z,31.60
2018-04-14T23:12:46.402Z,40.97
2018-04-14T23:15:14.639Z,38.23
2018-04-14T23:17:42.097Z,35.20
2018-04-14T23:20:11.494Z,32.77
2018-04-14T23:22:40.899Z,43.00
2018-04-14T23:25:13.084Z,50.90
2018-04-14T23:27:40.550Z,37.63
2018-04-14T23:30:08.026Z,33.10
2018-04-14T23:32:35.482Z,33.20
2018-04-14T23:35:05.617Z,41.00
2018-04-14T23:37:33.076Z,39.97
2018-04-14T23:40:01.310Z,28.67
2018-04-14T23:42:28.765Z,29.17
2018-04-14T23:44:57.255Z,32.60
2018-04-14T23:47:24.749Z,37.10
2018-04-14T23:49:52.219Z,29.57
2018-04-14T23:52:19.681Z,41.50
2018-04-14T23:54:49.069Z,42.13
2018-04-14T23:57:16.531Z,34.90
2018-04-14T23:59:44.001Z,30.70
